Time;durP1;ratioP1;P1;durP2;ratioP2;P2;SDS_P1;SDS_P2;PMS_P1;PMS_P2;Temp;Humidity;BMP_temperature;BMP_pressure;BME280_temperature;BME280_humidity;BME280_pressure;Samples;Min_cycle;Max_cycle;Signal;HPM_P1;HPM_P2
2022/10/05 00:01:26;;;;;;;13.27;9.82;;;11.50;99.90;;;;;;5117337;27;20227;-69
2022/10/05 00:04:08;;;;;;;14.90;9.30;;;11.40;99.90;;;;;;5117657;27;20298;-69
2022/10/05 00:06:34;;;;;;;17.67;9.73;;;11.40;99.90;;;;;;5135791;27;20206;-69
2022/10/05 00:09:00;;;;;;;13.40;9.60;;;11.40;99.90;;;;;;5136237;27;20175;-69
2022/10/05 00:11:25;;;;;;;12.60;8.95;;;11.30;99.90;;;;;;5135933;27;20195;-69
2022/10/05 00:13:51;;;;;;;13.73;10.47;;;11.30;99.90;;;;;;5136188;27;20248;-69
2022/10/05 00:16:20;;;;;;;13.05;9.10;;;11.30;99.90;;;;;;5135587;27;20739;-69
2022/10/05 00:18:49;;;;;;;14.10;9.95;;;11.20;99.90;;;;;;5136064;27;20643;-68
2022/10/05 00:21:21;;;;;;;16.30;10.13;;;11.20;99.90;;;;;;5135568;27;20747;-69
2022/10/05 00:23:47;;;;;;;15.00;10.70;;;11.10;99.90;;;;;;5135279;27;20305;-69
2022/10/05 00:26:25;;;;;;;17.77;10.07;;;11.10;99.90;;;;;;5135326;27;20565;-69
2022/10/05 00:28:52;;;;;;;13.38;9.55;;;11.10;99.90;;;;;;5136025;27;20254;-69
2022/10/05 00:31:29;;;;;;;11.88;9.82;;;11.00;99.90;;;;;;5116676;27;20247;-69
2022/10/05 00:33:56;;;;;;;15.20;9.73;;;11.00;99.90;;;;;;5135640;27;20760;-69
2022/10/05 00:36:22;;;;;;;12.70;9.10;;;11.00;99.90;;;;;;5135297;27;20674;-69
2022/10/05 00:38:48;;;;;;;15.85;11.43;;;11.00;99.90;;;;;;5117034;27;20217;-69
2022/10/05 00:41:26;;;;;;;15.90;10.10;;;11.00;99.90;;;;;;5116695;27;20194;-69
2022/10/05 00:44:20;;;;;;;15.50;10.95;;;11.00;99.90;;;;;;5135666;27;20445;-69
2022/10/05 00:47:11;;;;;;;13.13;9.50;;;11.00;99.90;;;;;;5135157;27;20227;-69
2022/10/05 00:49:37;;;;;;;14.32;9.20;;;10.90;99.90;;;;;;5095949;27;20199;-71
2022/10/05 00:52:19;;;;;;;14.60;9.60;;;10.90;99.90;;;;;;5116621;27;20504;-70
2022/10/05 00:55:26;;;;;;;14.73;10.38;;;10.80;99.90;;;;;;5135018;27;20277;-69
2022/10/05 00:58:15;;;;;;;12.38;8.93;;;10.80;99.90;;;;;;5100375;27;20206;-69
2022/10/05 01:00:56;;;;;;;18.58;9.90;;;10.70;99.90;;;;;;5135141;27;20550;-69
2022/10/05 01:04:00;;;;;;;14.15;9.75;;;10.70;99.90;;;;;;5135293;27;20210;-69
2022/10/05 01:06:31;;;;;;;14.90;10.75;;;10.60;99.90;;;;;;5134790;27;20186;-69
2022/10/05 01:09:30;;;;;;;15.00;10.25;;;10.60;99.90;;;;;;5135363;27;20651;-69
2022/10/05 01:12:17;;;;;;;15.05;9.50;;;10.60;99.90;;;;;;5116387;27;20175;-69
2022/10/05 01:14:51;;;;;;;16.25;9.05;;;10.60;99.90;;;;;;5116352;28;20282;-69
2022/10/05 01:17:26;;;;;;;21.33;9.75;;;10.50;99.90;;;;;;5134883;27;20643;-69
2022/10/05 01:20:04;;;;;;;13.70;10.30;;;10.50;99.90;;;;;;5134777;27;20211;-69
2022/10/05 01:23:03;;;;;;;12.50;8.75;;;10.50;99.90;;;;;;5134321;27;20339;-69
2022/10/05 01:25:53;;;;;;;12.38;8.80;;;10.40;99.90;;;;;;5134722;27;20191;-69
2022/10/05 01:28:35;;;;;;;13.90;9.40;;;10.40;99.90;;;;;;5135100;28;20676;-69
2022/10/05 01:31:25;;;;;;;14.18;8.68;;;10.40;99.90;;;;;;5134554;27;20199;-69
2022/10/05 01:34:18;;;;;;;14.73;9.85;;;10.40;99.90;;;;;;5116454;28;20179;-69
2022/10/05 01:37:03;;;;;;;14.60;9.90;;;10.30;99.90;;;;;;5134575;28;20174;-69
2022/10/05 01:39:57;;;;;;;12.93;9.45;;;10.30;99.90;;;;;;5116158;27;20185;-69
2022/10/05 01:42:58;;;;;;;13.18;9.75;;;10.30;99.90;;;;;;5069241;28;20254;-69
2022/10/05 01:45:31;;;;;;;16.58;9.52;;;10.20;99.90;;;;;;5137441;27;20190;-69
2022/10/05 01:48:08;;;;;;;16.55;10.15;;;10.20;99.90;;;;;;5138964;27;20183;-69
2022/10/05 01:50:42;;;;;;;18.15;11.57;;;10.10;99.90;;;;;;5138552;27;20220;-69
2022/10/05 01:53:37;;;;;;;16.77;10.13;;;10.10;99.90;;;;;;5138911;27;20179;-69
2022/10/05 01:56:38;;;;;;;17.80;10.63;;;10.00;99.90;;;;;;5083558;27;20205;-69
2022/10/05 01:59:14;;;;;;;12.45;9.73;;;9.90;99.90;;;;;;5119941;27;20183;-69
2022/10/05 02:01:59;;;;;;;13.07;9.90;;;9.90;99.90;;;;;;5138406;27;20166;-69
2022/10/05 02:04:40;;;;;;;16.08;10.40;;;9.90;99.90;;;;;;5138326;27;20222;-69
2022/10/05 02:07:12;;;;;;;14.70;10.23;;;9.80;99.90;;;;;;5138250;27;20183;-69
2022/10/05 02:09:45;;;;;;;13.93;9.65;;;9.80;99.90;;;;;;5138278;27;20232;-69
2022/10/05 02:12:18;;;;;;;18.35;10.50;;;9.90;99.90;;;;;;5119768;27;20546;-69
2022/10/05 02:14:49;;;;;;;12.90;9.50;;;9.80;99.90;;;;;;5119693;27;20199;-69
2022/10/05 02:17:29;;;;;;;16.05;10.60;;;9.90;99.90;;;;;;5119712;27;20635;-68
2022/10/05 02:20:01;;;;;;;16.63;11.15;;;9.90;99.90;;;;;;5138031;27;20202;-69
2022/10/05 02:22:33;;;;;;;15.27;11.52;;;9.90;99.90;;;;;;5137709;27;20223;-69
2022/10/05 02:25:06;;;;;;;17.13;9.57;;;9.90;99.90;;;;;;5119477;27;20239;-69
2022/10/05 02:27:50;;;;;;;15.65;8.68;;;9.90;99.90;;;;;;5138178;27;20214;-69
2022/10/05 02:30:18;;;;;;;14.27;9.45;;;10.00;99.90;;;;;;5119452;27;20686;-69
2022/10/05 02:32:52;;;;;;;13.32;9.20;;;10.00;99.90;;;;;;5138077;27;20261;-69
2022/10/05 02:35:20;;;;;;;12.27;9.15;;;10.00;99.90;;;;;;5119742;27;20191;-69
2022/10/05 02:38:14;;;;;;;11.65;9.00;;;10.00;99.90;;;;;;5119309;27;20189;-69
2022/10/05 02:40:51;;;;;;;12.98;8.68;;;10.00;99.90;;;;;;5119290;27;20274;-69
2022/10/05 02:43:33;;;;;;;12.20;9.07;;;10.00;99.90;;;;;;5137846;27;20631;-69
2022/10/05 02:46:37;;;;;;;12.77;9.52;;;9.90;99.90;;;;;;5118978;27;20667;-69
2022/10/05 02:49:36;;;;;;;12.40;8.20;;;9.90;99.90;;;;;;5137948;27;20258;-68
2022/10/05 02:52:05;;;;;;;15.10;9.82;;;9.90;99.90;;;;;;5137325;27;20178;-69
2022/10/05 02:54:59;;;;;;;12.93;9.75;;;9.90;99.90;;;;;;5118805;27;20198;-69
2022/10/05 02:57:36;;;;;;;16.83;10.77;;;9.90;99.90;;;;;;5137407;27;20183;-69
2022/10/05 03:00:08;;;;;;;19.25;9.70;;;9.90;99.90;;;;;;5118786;27;20198;-69
2022/10/05 03:03:01;;;;;;;15.32;10.30;;;9.90;99.90;;;;;;5137401;27;20662;-69
2022/10/05 03:05:48;;;;;;;22.45;10.77;;;9.90;99.90;;;;;;5137241;27;20194;-71
2022/10/05 03:08:30;;;;;;;18.63;10.02;;;9.90;99.90;;;;;;5137418;27;20695;-71
2022/10/05 03:10:58;;;;;;;15.60;10.73;;;9.90;99.90;;;;;;5137009;27;20187;-71
2022/10/05 03:14:06;;;;;;;16.65;11.57;;;9.90;99.90;;;;;;5137447;27;20207;-71
2022/10/05 03:16:42;;;;;;;15.52;10.15;;;10.00;99.90;;;;;;5136954;27;20199;-71
2022/10/05 03:19:24;;;;;;;14.48;9.75;;;10.00;99.90;;;;;;5136966;27;20635;-72
2022/10/05 03:22:11;;;;;;;17.23;10.25;;;10.10;99.90;;;;;;5136491;27;20220;-72
2022/10/05 03:24:59;;;;;;;14.90;10.35;;;10.10;99.90;;;;;;5136852;27;20298;-71
2022/10/05 03:27:43;;;;;;;15.05;9.85;;;10.10;99.90;;;;;;5118267;27;20186;-71
2022/10/05 03:30:21;;;;;;;14.90;10.00;;;10.20;99.90;;;;;;5136640;27;20228;-71
2022/10/05 03:33:03;;;;;;;15.23;11.00;;;10.20;99.90;;;;;;5136927;27;20264;-71
2022/10/05 03:35:52;;;;;;;14.05;10.00;;;10.20;99.90;;;;;;5136671;27;20548;-71
2022/10/05 03:38:20;;;;;;;14.73;9.93;;;10.30;99.90;;;;;;5136202;27;20214;-72
2022/10/05 03:40:54;;;;;;;15.18;9.40;;;10.30;99.90;;;;;;5136337;27;20191;-72
2022/10/05 03:43:41;;;;;;;13.75;10.27;;;10.30;99.90;;;;;;5136749;27;20287;-71
2022/10/05 03:46:16;;;;;;;17.30;10.75;;;10.20;99.90;;;;;;5136313;27;20202;-72
2022/10/05 03:49:05;;;;;;;15.93;11.38;;;10.20;99.90;;;;;;5136839;27;20536;-71
2022/10/05 03:51:37;;;;;;;13.20;9.48;;;10.20;99.90;;;;;;5084128;27;20582;-71
2022/10/05 03:54:10;;;;;;;14.25;9.85;;;10.20;99.90;;;;;;5117738;27;20319;-72
2022/10/05 03:56:43;;;;;;;15.70;11.02;;;10.20;99.90;;;;;;5136188;27;20202;-71
2022/10/05 03:59:21;;;;;;;18.55;10.55;;;10.20;99.90;;;;;;5136089;27;20160;-72
2022/10/05 04:01:52;;;;;;;13.55;11.30;;;10.20;99.90;;;;;;5117631;27;20171;-72
2022/10/05 04:04:37;;;;;;;15.80;11.77;;;10.20;99.90;;;;;;5135803;27;20207;-71
2022/10/05 04:07:07;;;;;;;13.20;10.48;;;10.20;99.90;;;;;;5135052;27;20175;-71
2022/10/05 04:09:38;;;;;;;14.25;9.80;;;10.20;99.90;;;;;;5118028;27;20673;-71
2022/10/05 04:12:24;;;;;;;14.48;10.50;;;10.20;99.90;;;;;;5135764;27;20190;-72
2022/10/05 04:14:55;;;;;;;12.93;9.50;;;10.20;99.90;;;;;;5135805;27;20248;-72
2022/10/05 04:17:27;;;;;;;16.02;9.88;;;10.20;99.90;;;;;;5135662;27;20174;-71
2022/10/05 04:19:59;;;;;;;16.83;10.40;;;10.10;99.90;;;;;;5116878;27;20622;-71
2022/10/05 04:22:30;;;;;;;14.63;10.40;;;10.10;99.90;;;;;;5135178;27;20235;-71
2022/10/05 04:25:16;;;;;;;13.40;10.00;;;10.00;99.90;;;;;;5135415;27;20187;-75
2022/10/05 04:28:03;;;;;;;16.17;10.25;;;9.90;99.90;;;;;;5135768;27;20542;-73
2022/10/05 04:30:31;;;;;;;18.25;11.13;;;9.80;99.90;;;;;;5135117;27;20277;-75
2022/10/05 04:32:59;;;;;;;18.33;11.15;;;9.70;99.90;;;;;;5135352;27;20545;-75
2022/10/05 04:35:45;;;;;;;16.77;11.07;;;9.60;99.90;;;;;;5135426;27;20187;-75
2022/10/05 04:38:28;;;;;;;13.07;10.57;;;9.50;99.90;;;;;;5135042;27;20182;-76
2022/10/05 04:41:27;;;;;;;21.65;13.65;;;9.50;99.90;;;;;;5133820;27;20209;-73
2022/10/05 04:44:24;;;;;;;18.33;13.20;;;9.50;99.90;;;;;;5113031;28;20204;-75
2022/10/05 04:47:11;;;;;;;18.10;11.50;;;9.50;99.90;;;;;;5112684;28;20164;-74
2022/10/05 04:50:08;;;;;;;17.50;11.45;;;9.50;99.90;;;;;;5094845;28;20199;-74
2022/10/05 04:52:50;;;;;;;22.45;13.38;;;9.60;99.90;;;;;;5081097;28;20684;-75
2022/10/05 04:55:18;;;;;;;18.30;10.35;;;9.60;99.90;;;;;;5113107;28;20194;-75
2022/10/05 04:57:59;;;;;;;18.27;11.45;;;9.50;99.90;;;;;;5127678;27;20212;-74
2022/10/05 05:00:30;;;;;;;14.15;8.60;;;9.50;99.90;;;;;;5117803;27;20277;-75
2022/10/05 05:03:07;;;;;;;10.63;8.20;;;9.50;99.90;;;;;;5134593;27;20214;-76
2022/10/05 05:05:57;;;;;;;10.40;8.63;;;9.40;99.90;;;;;;5134850;27;20289;-75
2022/10/05 05:08:52;;;;;;;13.18;8.60;;;9.30;99.90;;;;;;5116382;27;20182;-73
2022/10/05 05:11:52;;;;;;;12.82;8.65;;;9.30;99.90;;;;;;5129711;27;20200;-73
2022/10/05 05:14:36;;;;;;;15.45;9.23;;;9.20;99.90;;;;;;5114671;27;20194;-74
2022/10/05 05:17:37;;;;;;;15.77;9.20;;;9.10;99.90;;;;;;5116213;28;20198;-73
2022/10/05 05:20:17;;;;;;;15.10;10.68;;;9.10;99.90;;;;;;5115669;27;20206;-75
2022/10/05 05:22:56;;;;;;;18.27;11.75;;;9.00;99.90;;;;;;5131588;27;20315;-73
2022/10/05 05:26:01;;;;;;;13.68;9.73;;;9.00;99.90;;;;;;5113761;28;20575;-75
2022/10/05 05:28:38;;;;;;;14.52;11.10;;;9.00;99.90;;;;;;5132180;28;20183;-75
2022/10/05 05:31:35;;;;;;;14.50;9.65;;;8.90;99.90;;;;;;5131965;28;20183;-75
2022/10/05 05:34:19;;;;;;;13.30;8.88;;;8.90;99.90;;;;;;5133247;28;20269;-75
2022/10/05 05:36:45;;;;;;;12.98;9.02;;;8.90;99.90;;;;;;5133555;28;20151;-73
2022/10/05 05:39:24;;;;;;;13.53;8.03;;;9.00;99.90;;;;;;5133295;28;20167;-73
2022/10/05 05:41:56;;;;;;;11.82;8.40;;;9.00;99.90;;;;;;5133505;28;20163;-74
2022/10/05 05:44:25;;;;;;;10.70;7.57;;;9.00;99.90;;;;;;5113158;28;20375;-75
2022/10/05 05:46:59;;;;;;;9.43;7.05;;;9.00;99.90;;;;;;5112084;28;20175;-75
2022/10/05 05:49:59;;;;;;;11.85;8.88;;;9.00;99.90;;;;;;5126344;28;20258;-75
2022/10/05 05:52:35;;;;;;;11.02;7.50;;;9.00;99.90;;;;;;5022754;28;20443;-73
2022/10/05 05:55:07;;;;;;;13.88;8.90;;;9.00;99.90;;;;;;5109573;28;20298;-74
2022/10/05 05:57:56;;;;;;;14.95;9.85;;;9.10;99.90;;;;;;5123420;28;20340;-73
2022/10/05 06:00:44;;;;;;;18.15;11.68;;;9.10;99.90;;;;;;5112372;28;20191;-74
2022/10/05 06:03:23;;;;;;;16.58;10.75;;;9.20;99.90;;;;;;5131333;28;20580;-75
2022/10/05 06:05:59;;;;;;;18.77;11.48;;;9.20;99.90;;;;;;5123882;28;20199;-73
2022/10/05 06:08:39;;;;;;;16.42;10.73;;;9.30;99.90;;;;;;5120258;28;20183;-75
2022/10/05 06:11:15;;;;;;;21.10;12.82;;;9.40;99.90;;;;;;5120603;28;20690;-73
2022/10/05 06:13:41;;;;;;;19.20;13.20;;;9.40;99.90;;;;;;5121927;28;20258;-73
2022/10/05 06:16:11;;;;;;;21.27;12.63;;;9.50;99.90;;;;;;5104615;28;20191;-75
2022/10/05 06:18:42;;;;;;;18.92;11.23;;;9.60;99.90;;;;;;5113616;28;20206;-75
2022/10/05 06:21:25;;;;;;;16.33;10.93;;;9.70;99.90;;;;;;5131325;28;20179;-75
2022/10/05 06:24:02;;;;;;;18.65;11.57;;;9.80;99.90;;;;;;5131198;28;20747;-71
2022/10/05 06:26:36;;;;;;;19.45;13.65;;;9.90;99.90;;;;;;5113014;28;20191;-71
2022/10/05 06:29:07;;;;;;;23.38;15.23;;;10.00;99.90;;;;;;5131685;28;20178;-71
2022/10/05 06:31:48;;;;;;;20.67;14.52;;;10.10;99.90;;;;;;5134621;27;20195;-72
2022/10/05 06:34:25;;;;;;;25.83;13.43;;;10.30;99.90;;;;;;5133614;27;20188;-71
2022/10/05 06:37:19;;;;;;;25.08;13.07;;;10.40;99.90;;;;;;5116642;27;20582;-73
2022/10/05 06:39:58;;;;;;;23.58;11.80;;;10.60;99.90;;;;;;5117159;27;20206;-71
2022/10/05 06:42:38;;;;;;;17.80;11.52;;;10.70;99.90;;;;;;5134639;27;20179;-71
2022/10/05 06:45:14;;;;;;;16.95;12.13;;;10.90;99.90;;;;;;5116067;27;20289;-71
2022/10/05 06:47:57;;;;;;;16.95;12.50;;;11.00;99.90;;;;;;5133517;27;20186;-71
2022/10/05 06:50:42;;;;;;;16.83;11.48;;;11.10;99.90;;;;;;5114002;27;20198;-71
2022/10/05 06:53:29;;;;;;;16.73;11.88;;;11.30;99.90;;;;;;5115042;27;20183;-71
2022/10/05 06:56:06;;;;;;;19.40;11.68;;;11.40;99.90;;;;;;5134363;27;20191;-71
2022/10/05 06:58:56;;;;;;;22.17;12.40;;;11.60;99.90;;;;;;5113619;28;20211;-72
2022/10/05 07:01:51;;;;;;;16.60;12.25;;;11.70;99.90;;;;;;5097556;28;20221;-72
2022/10/05 07:04:54;;;;;;;22.88;13.82;;;11.80;99.90;;;;;;5127495;27;20222;-73
2022/10/05 07:07:54;;;;;;;18.43;13.33;;;12.00;99.90;;;;;;5116296;27;20541;-72
2022/10/05 07:10:34;;;;;;;19.65;11.20;;;12.20;99.90;;;;;;5118257;27;20439;-71
2022/10/05 07:13:14;;;;;;;16.45;11.07;;;12.30;99.90;;;;;;5135930;27;20174;-71
2022/10/05 07:16:04;;;;;;;20.10;12.63;;;12.40;99.90;;;;;;5135629;27;20677;-71
2022/10/05 07:19:08;;;;;;;19.17;12.30;;;12.60;99.90;;;;;;5116974;27;20260;-74
2022/10/05 07:21:38;;;;;;;18.77;12.10;;;12.80;99.90;;;;;;5124678;27;20415;-72
2022/10/05 07:24:20;;;;;;;18.40;12.07;;;12.90;99.90;;;;;;5121355;27;20479;-75
2022/10/05 07:26:53;;;;;;;17.13;10.80;;;13.10;99.90;;;;;;5128952;27;20442;-74
2022/10/05 07:29:32;;;;;;;16.70;11.97;;;13.20;99.90;;;;;;5121869;27;20404;-73
2022/10/05 07:32:32;;;;;;;20.07;11.70;;;13.40;99.90;;;;;;5102476;27;20416;-72
2022/10/05 07:37:52;;;;;;;14.00;10.90;;;13.50;99.90;;;;;;5118507;27;20431;-73
2022/10/05 07:37:58;;;;;;;15.13;10.77;;;13.70;99.90;;;;;;5122722;27;20424;-73
2022/10/05 07:40:30;;;;;;;14.33;10.90;;;13.90;99.90;;;;;;5118913;27;20459;-73
2022/10/05 07:43:05;;;;;;;17.77;12.33;;;14.00;99.90;;;;;;5118828;27;20456;-72
2022/10/05 07:45:52;;;;;;;18.93;11.53;;;14.10;99.90;;;;;;5121461;27;20947;-73
2022/10/05 07:48:19;;;;;;;14.13;10.67;;;14.20;99.90;;;;;;5134495;27;20752;-74
2022/10/05 07:51:00;;;;;;;17.43;12.20;;;14.40;99.90;;;;;;5127618;27;20946;-74
2022/10/05 07:53:38;;;;;;;16.27;11.10;;;14.70;99.90;;;;;;5112520;27;20511;-72
2022/10/05 07:56:24;;;;;;;17.77;10.67;;;15.10;99.90;;;;;;5123350;27;20431;-72
2022/10/05 07:59:06;;;;;;;14.53;9.03;;;15.60;99.90;;;;;;5108509;27;20466;-74
2022/10/05 08:01:36;;;;;;;15.90;9.80;;;16.30;99.90;;;;;;5114118;27;20454;-74
2022/10/05 08:04:11;;;;;;;15.30;10.57;;;17.00;99.90;;;;;;5126113;27;20975;-73
2022/10/05 08:06:36;;;;;;;11.37;8.50;;;17.90;99.90;;;;;;5128392;27;20426;-74
2022/10/05 08:09:31;;;;;;;10.97;8.73;;;18.90;99.90;;;;;;5106766;27;20904;-73
2022/10/05 08:12:20;;;;;;;11.80;9.00;;;19.90;99.90;;;;;;5125374;27;20444;-73
2022/10/05 08:14:54;;;;;;;12.10;9.30;;;21.30;99.90;;;;;;5130947;27;20433;-73
2022/10/05 08:17:30;;;;;;;12.97;8.87;;;22.20;99.90;;;;;;5130702;27;20453;-74
2022/10/05 08:20:04;;;;;;;13.97;10.27;;;23.00;99.90;;;;;;5123382;27;20458;-73
2022/10/05 08:22:38;;;;;;;10.93;9.60;;;23.80;99.90;;;;;;5128674;27;20486;-74
2022/10/05 08:25:17;;;;;;;13.53;9.33;;;24.60;99.90;;;;;;5126531;27;20454;-75
2022/10/05 08:28:14;;;;;;;10.30;8.57;;;25.30;99.90;;;;;;5128966;27;20443;-75
2022/10/05 08:31:07;;;;;;;12.20;7.70;;;25.90;99.90;;;;;;5103709;27;20448;-74
2022/10/05 08:33:54;;;;;;;9.67;8.77;;;26.30;99.90;;;;;;5101920;27;20792;-73
2022/10/05 08:36:46;;;;;;;8.17;7.33;;;26.60;99.90;;;;;;5122881;27;20544;-74
2022/10/05 08:39:17;;;;;;;8.97;7.17;;;26.80;99.90;;;;;;5121185;27;20448;-74
2022/10/05 08:42:11;;;;;;;7.10;6.33;;;26.70;99.90;;;;;;5121684;27;20500;-74
2022/10/05 08:44:59;;;;;;;9.27;5.90;;;26.30;99.00;;;;;;5127210;27;20508;-74
2022/10/05 08:47:36;;;;;;;8.33;6.83;;;25.70;98.80;;;;;;5131174;27;20785;-74
2022/10/05 08:50:19;;;;;;;10.93;8.73;;;25.00;99.40;;;;;;5121956;27;20443;-73
2022/10/05 08:53:18;;;;;;;10.60;7.87;;;24.30;99.90;;;;;;5127986;27;20459;-73
2022/10/05 08:56:20;;;;;;;9.90;6.73;;;23.50;99.90;;;;;;5065299;27;20447;-73
2022/10/05 08:59:14;;;;;;;9.60;6.70;;;22.90;99.90;;;;;;5124270;27;20427;-73
2022/10/05 09:02:12;;;;;;;11.07;7.20;;;22.30;99.90;;;;;;5109990;28;20973;-74
2022/10/05 09:05:00;;;;;;;9.57;7.20;;;21.90;99.90;;;;;;5091789;27;20522;-72
2022/10/05 09:07:55;;;;;;;10.70;7.70;;;21.50;99.90;;;;;;5107173;27;20519;-72
2022/10/05 09:10:27;;;;;;;8.60;6.60;;;21.00;99.90;;;;;;5130270;27;20423;-73
2022/10/05 09:13:35;;;;;;;12.93;7.80;;;20.80;99.90;;;;;;5112773;27;20919;-72
2022/10/05 09:16:33;;;;;;;9.80;7.60;;;20.60;99.90;;;;;;5129018;27;20958;-73
2022/10/05 09:19:17;;;;;;;10.83;7.13;;;20.30;99.90;;;;;;5032820;28;20480;-73
2022/10/05 09:22:15;;;;;;;8.23;6.70;;;20.10;99.90;;;;;;5119905;27;20792;-72
2022/10/05 09:25:07;;;;;;;9.10;6.27;;;20.10;99.90;;;;;;5075405;27;20477;-73
2022/10/05 09:27:42;;;;;;;7.27;5.67;;;20.10;99.90;;;;;;5089407;28;20428;-74
2022/10/05 09:30:38;;;;;;;7.90;6.57;;;20.10;99.90;;;;;;5120707;27;20426;-74
2022/10/05 09:33:25;;;;;;;8.93;5.33;;;20.00;99.90;;;;;;5107497;28;20442;-74
2022/10/05 09:36:20;;;;;;;6.53;5.67;;;19.80;99.90;;;;;;5110618;28;20496;-73
2022/10/05 09:39:31;;;;;;;9.40;5.80;;;19.70;99.90;;;;;;5105610;28;20505;-74
2022/10/05 09:42:08;;;;;;;11.20;5.43;;;19.60;99.90;;;;;;5100705;28;20696;-72
2022/10/05 09:44:57;;;;;;;5.17;4.53;;;19.50;99.90;;;;;;5108469;28;21030;-74
2022/10/05 09:47:31;;;;;;;5.77;4.03;;;19.40;99.90;;;;;;5109070;28;20457;-72
2022/10/05 09:50:21;;;;;;;5.30;4.27;;;19.40;99.90;;;;;;5127646;28;20441;-74
2022/10/05 09:53:11;;;;;;;6.83;5.10;;;19.50;99.90;;;;;;5129978;28;20435;-73
2022/10/05 09:56:23;;;;;;;6.70;4.90;;;19.50;99.90;;;;;;5124152;27;20812;-73
2022/10/05 09:59:09;;;;;;;5.23;4.23;;;19.40;99.90;;;;;;5113498;28;20461;-72
2022/10/05 10:01:56;;;;;;;6.93;4.77;;;19.30;99.90;;;;;;5104683;28;20831;-72
2022/10/05 10:04:49;;;;;;;6.03;4.47;;;19.20;99.90;;;;;;5127409;27;20528;-72
2022/10/05 10:07:44;;;;;;;6.60;4.40;;;19.10;99.90;;;;;;5131833;27;20513;-74
2022/10/05 10:10:16;;;;;;;5.70;4.13;;;19.00;99.90;;;;;;5133960;27;20522;-71
2022/10/05 10:13:00;;;;;;;7.27;4.40;;;19.00;99.90;;;;;;5133744;27;20438;-73
2022/10/05 10:15:44;;;;;;;5.10;3.57;;;18.90;99.90;;;;;;5116899;27;20557;-72
2022/10/05 10:18:21;;;;;;;5.80;4.33;;;18.90;99.90;;;;;;5127821;27;20482;-73
2022/10/05 10:21:13;;;;;;;4.97;3.67;;;19.00;99.90;;;;;;5136850;27;20433;-74
2022/10/05 10:23:45;;;;;;;3.23;2.93;;;19.00;99.90;;;;;;5069101;28;20533;-74
2022/10/05 10:26:55;;;;;;;3.83;2.97;;;18.90;99.90;;;;;;5095924;28;20428;-73
2022/10/05 10:29:38;;;;;;;3.83;3.43;;;19.00;99.90;;;;;;5113466;27;20430;-74
2022/10/05 10:32:17;;;;;;;3.00;2.70;;;19.00;99.90;;;;;;5088938;28;20443;-72
2022/10/05 10:35:08;;;;;;;4.73;3.00;;;19.00;99.90;;;;;;5094299;28;20436;-74
2022/10/05 10:37:57;;;;;;;4.17;3.00;;;19.00;99.90;;;;;;5090460;28;20526;-72
2022/10/05 10:40:52;;;;;;;5.80;4.00;;;19.00;99.90;;;;;;5078190;28;20429;-73
2022/10/05 10:43:38;;;;;;;3.37;3.00;;;19.00;99.90;;;;;;5087351;28;20486;-72
2022/10/05 10:46:07;;;;;;;3.60;2.83;;;19.00;99.90;;;;;;5087500;28;20454;-72
2022/10/05 10:48:51;;;;;;;4.10;3.10;;;19.00;99.90;;;;;;5089718;28;21006;-72
2022/10/05 10:51:42;;;;;;;6.30;3.40;;;19.00;99.90;;;;;;5086020;28;20467;-74
2022/10/05 10:54:46;;;;;;;3.00;2.70;;;18.90;99.90;;;;;;5086247;28;20525;-72
2022/10/05 10:57:27;;;;;;;5.03;4.63;;;18.90;99.90;;;;;;5088207;28;20475;-73
2022/10/05 11:00:14;;;;;;;4.30;3.90;;;18.90;99.90;;;;;;5110213;28;20483;-74
2022/10/05 11:02:46;;;;;;;5.90;3.73;;;19.00;99.90;;;;;;5089521;28;20427;-73
2022/10/05 11:05:50;;;;;;;5.03;3.40;;;19.00;99.90;;;;;;5084061;28;20542;-72
2022/10/05 11:08:37;;;;;;;4.20;2.93;;;19.10;99.90;;;;;;5080979;28;20463;-72
2022/10/05 11:11:57;;;;;;;4.33;3.93;;;19.10;99.90;;;;;;5102443;28;20454;-73
2022/10/05 11:14:51;;;;;;;4.20;2.90;;;19.20;99.90;;;;;;5027407;28;20769;-72
2022/10/05 11:17:39;;;;;;;5.77;3.27;;;19.20;99.90;;;;;;5006488;28;20971;-73
2022/10/05 11:20:35;;;;;;;6.50;3.03;;;19.20;99.90;;;;;;5078457;28;20462;-74
2022/10/05 11:23:19;;;;;;;3.40;3.10;;;19.20;99.90;;;;;;5107733;27;20496;-73
2022/10/05 11:26:03;;;;;;;3.50;3.20;;;19.20;99.90;;;;;;5106090;27;20455;-73
2022/10/05 11:28:53;;;;;;;4.63;3.40;;;19.20;99.90;;;;;;5127628;27;20485;-74
2022/10/05 11:31:21;;;;;;;4.70;3.43;;;19.30;99.90;;;;;;5121661;27;20525;-74
2022/10/05 11:34:21;;;;;;;3.17;2.87;;;19.30;99.90;;;;;;5105587;27;20437;-73
2022/10/05 11:37:17;;;;;;;5.00;2.83;;;19.30;99.90;;;;;;5124981;27;20953;-74
2022/10/05 11:40:01;;;;;;;3.57;3.20;;;19.40;99.90;;;;;;5126540;27;20460;-72
2022/10/05 11:42:45;;;;;;;2.73;2.50;;;19.30;99.90;;;;;;5120653;27;20786;-73
2022/10/05 11:45:35;;;;;;;4.23;2.80;;;19.30;99.90;;;;;;5099970;27;20496;-74
2022/10/05 11:48:19;;;;;;;3.23;2.70;;;19.40;99.90;;;;;;5098772;27;20534;-72
2022/10/05 11:51:04;;;;;;;5.43;3.10;;;19.40;99.90;;;;;;5121112;27;20797;-72
2022/10/05 11:53:40;;;;;;;4.70;3.43;;;19.50;99.90;;;;;;5114654;27;21011;-72
2022/10/05 11:56:28;;;;;;;4.60;3.60;;;19.50;99.90;;;;;;5102471;27;20498;-72
2022/10/05 11:59:02;;;;;;;3.33;2.20;;;19.50;99.90;;;;;;5114463;27;20796;-73
2022/10/05 12:01:52;;;;;;;4.63;3.60;;;19.50;99.90;;;;;;5118389;27;20970;-74
2022/10/05 12:04:44;;;;;;;3.33;2.60;;;19.50;99.90;;;;;;5082583;27;20486;-72
2022/10/05 12:07:40;;;;;;;4.13;2.77;;;19.40;99.90;;;;;;5119825;27;20465;-73
2022/10/05 12:10:26;;;;;;;2.67;2.47;;;19.40;99.90;;;;;;5121124;27;20447;-73
2022/10/05 12:13:18;;;;;;;3.10;2.80;;;19.40;99.90;;;;;;5097735;27;20468;-74
2022/10/05 12:15:52;;;;;;;3.97;2.97;;;19.40;99.90;;;;;;5095784;27;20445;-72
2022/10/05 12:18:30;;;;;;;6.07;3.20;;;19.40;99.90;;;;;;5113091;27;20508;-72
2022/10/05 12:21:33;;;;;;;3.40;2.90;;;19.40;99.90;;;;;;5118747;27;20433;-74
2022/10/05 12:24:22;;;;;;;7.13;3.10;;;19.50;99.90;;;;;;5101230;28;20487;-72
2022/10/05 12:26:57;;;;;;;3.43;2.50;;;19.60;99.90;;;;;;5104253;27;20935;-74
2022/10/05 12:29:28;;;;;;;4.97;3.30;;;19.60;99.90;;;;;;5097058;28;20760;-72
2022/10/05 12:31:56;;;;;;;3.40;2.70;;;19.50;99.90;;;;;;5095026;27;21164;-72
2022/10/05 12:34:37;;;;;;;6.10;4.73;;;19.60;99.90;;;;;;5118970;27;20411;-73
2022/10/05 12:37:30;;;;;;;3.83;3.27;;;19.60;99.90;;;;;;5121442;27;20432;-73
2022/10/05 12:40:12;;;;;;;4.03;3.20;;;19.60;99.90;;;;;;5124174;27;20902;-74
2022/10/05 12:43:02;;;;;;;3.67;2.90;;;19.60;99.90;;;;;;5102420;27;21189;-73
2022/10/05 12:45:45;;;;;;;3.67;3.10;;;19.60;99.90;;;;;;5127369;27;20457;-74
2022/10/05 12:48:42;;;;;;;3.73;3.20;;;19.60;99.90;;;;;;5108793;27;20490;-73
2022/10/05 12:51:29;;;;;;;5.10;3.70;;;19.60;99.90;;;;;;5120296;27;20426;-74
2022/10/05 12:54:08;;;;;;;5.73;3.33;;;19.60;99.90;;;;;;5120314;27;20434;-73
2022/10/05 12:56:43;;;;;;;5.13;3.13;;;19.60;99.90;;;;;;5128422;27;20490;-73
2022/10/05 12:59:53;;;;;;;3.83;2.80;;;19.60;99.90;;;;;;5126966;27;20519;-73
2022/10/05 13:02:44;;;;;;;3.20;2.70;;;19.60;99.90;;;;;;5125754;27;21005;-74
2022/10/05 13:05:10;;;;;;;4.03;3.03;;;19.50;99.90;;;;;;5132664;27;20471;-74
2022/10/05 13:07:59;;;;;;;3.97;2.73;;;19.50;99.90;;;;;;5131729;27;20540;-74
2022/10/05 13:10:42;;;;;;;3.70;2.77;;;19.50;99.90;;;;;;5104246;27;20210;-74
2022/10/05 13:13:35;;;;;;;5.03;3.40;;;19.50;99.90;;;;;;5131430;27;20442;-73
2022/10/05 13:16:25;;;;;;;3.17;2.87;;;19.50;99.90;;;;;;5114059;27;20458;-74
2022/10/05 13:19:00;;;;;;;3.50;3.20;;;19.50;99.90;;;;;;5125267;27;20457;-73
2022/10/05 13:21:33;;;;;;;3.20;2.77;;;19.50;99.90;;;;;;5127736;27;20468;-74
2022/10/05 13:24:29;;;;;;;6.20;3.70;;;19.50;99.90;;;;;;5121359;27;20487;-75
2022/10/05 13:27:07;;;;;;;3.83;3.40;;;19.50;99.90;;;;;;5091279;28;20974;-72
2022/10/05 13:29:36;;;;;;;3.20;2.90;;;19.50;99.90;;;;;;5094205;27;20426;-74
2022/10/05 13:32:25;;;;;;;6.23;2.83;;;19.50;99.90;;;;;;5129033;28;20419;-75
2022/10/05 13:35:01;;;;;;;3.50;2.73;;;19.50;99.90;;;;;;5110565;28;20461;-73
2022/10/05 13:37:40;;;;;;;3.30;2.87;;;19.50;99.90;;;;;;5109678;28;20796;-74
2022/10/05 13:40:29;;;;;;;3.13;2.30;;;19.50;99.90;;;;;;5108484;27;20783;-75
2022/10/05 13:43:04;;;;;;;3.67;2.80;;;19.50;99.90;;;;;;5128742;27;20823;-73
2022/10/05 13:45:59;;;;;;;4.77;2.77;;;19.50;99.90;;;;;;5130254;27;20468;-73
2022/10/05 13:48:56;;;;;;;4.43;2.60;;;19.60;99.90;;;;;;5120713;27;20434;-75
2022/10/05 13:51:47;;;;;;;6.40;2.70;;;19.50;99.90;;;;;;5115237;27;20925;-73
2022/10/05 13:54:19;;;;;;;4.67;2.80;;;19.50;99.90;;;;;;5122586;27;20447;-73
2022/10/05 13:56:51;;;;;;;3.80;3.23;;;19.50;99.90;;;;;;5135592;27;20425;-74
2022/10/05 13:59:34;;;;;;;3.33;2.70;;;19.40;99.90;;;;;;5135822;27;20914;-73